createdAt,value
2023-01-28T00:01:25.339Z,99596.53
2023-01-28T00:03:53.554Z,99593.00
2023-01-28T00:06:20.541Z,99592.19
2023-01-28T00:08:48.342Z,99593.00
2023-01-28T00:11:15.198Z,99590.53
2023-01-28T00:13:42.340Z,99588.06
2023-01-28T00:16:09.923Z,99585.38
2023-01-28T00:18:37.683Z,99587.44
2023-01-28T00:21:08.288Z,99587.44
2023-01-28T00:23:37.128Z,99593.03
2023-01-28T00:26:06.619Z,99586.81
2023-01-28T00:28:34.050Z,99588.69
2023-01-28T00:31:06.814Z,99594.06
2023-01-28T00:33:33.996Z,99592.41
2023-01-28T00:36:01.823Z,99591.78
2023-01-28T00:38:30.237Z,99591.78
2023-01-28T00:41:06.639Z,99595.53
2023-01-28T00:43:33.665Z,99592.00
2023-01-28T00:46:00.476Z,99584.38
2023-01-28T00:48:27.744Z,99595.94
2023-01-28T00:50:54.573Z,99587.06
2023-01-28T00:53:21.444Z,99586.22
2023-01-28T00:55:49.681Z,99596.13
2023-01-28T00:58:16.569Z,99587.25
2023-01-28T01:00:43.684Z,99589.09
2023-01-28T01:03:11.024Z,99585.63
2023-01-28T01:05:38.195Z,99593.88
2023-01-28T01:08:05.507Z,99593.06
2023-01-28T01:10:32.371Z,99587.66
2023-01-28T01:13:01.282Z,99596.78
2023-01-28T01:15:28.205Z,99591.41
2023-01-28T01:17:57.190Z,99587.88
2023-01-28T01:20:27.908Z,99590.78
2023-01-28T01:22:54.916Z,99589.13
2023-01-28T01:25:21.912Z,99598.84
2023-01-28T01:27:49.970Z,99598.25
2023-01-28T01:30:21.359Z,99596.59
2023-01-28T01:32:48.269Z,99602.78
2023-01-28T01:35:15.545Z,99612.75
2023-01-28T01:37:44.652Z,99613.75
2023-01-28T01:40:12.735Z,99610.47
2023-01-28T01:42:39.704Z,99614.19
2023-01-28T01:45:08.170Z,99603.44
2023-01-28T01:47:44.095Z,99610.66
2023-01-28T01:50:19.087Z,99608.19
2023-01-28T01:52:47.609Z,99603.84
2023-01-28T01:55:18.389Z,99612.94
2023-01-28T01:57:48.110Z,99607.56
2023-01-28T02:00:16.452Z,99614.59
2023-01-28T02:02:51.424Z,99604.88
2023-01-28T02:05:20.357Z,99608.59
2023-01-28T02:07:50.198Z,99612.94
2023-01-28T02:10:18.538Z,99604.25
2023-01-28T02:12:49.936Z,99607.97
2023-01-28T02:15:17.939Z,99604.44
2023-01-28T02:17:45.625Z,99607.53
2023-01-28T02:20:21.486Z,99609.44
2023-01-28T02:23:13.113Z,99610.25
2023-01-28T02:26:10.391Z,99613.16
2023-01-28T02:28:45.259Z,99612.53
2023-01-28T02:31:19.699Z,99618.75
2023-01-28T02:33:56.511Z,99615.22
2023-01-28T02:36:30.535Z,99620.59
2023-01-28T02:39:03.428Z,99623.28
2023-01-28T02:41:34.601Z,99627.03
2023-01-28T02:44:04.447Z,99626.19
2023-01-28T02:46:55.069Z,99623.50
2023-01-28T02:49:26.884Z,99626.38
2023-01-28T02:52:11.563Z,99629.06
2023-01-28T02:54:45.124Z,99630.13
2023-01-28T02:57:24.425Z,99628.47
2023-01-28T03:00:01.778Z,99627.44
2023-01-28T03:02:36.397Z,99627.44
2023-01-28T03:05:09.267Z,99624.13
2023-01-28T03:07:38.315Z,99618.75
2023-01-28T03:10:09.888Z,99632.19
2023-01-28T03:13:00.167Z,99633.84
2023-01-28T03:15:50.971Z,99627.84
2023-01-28T03:18:41.859Z,99630.97
2023-01-28T03:21:31.317Z,99645.41
2023-01-28T03:24:22.985Z,99642.72
2023-01-28T03:27:16.898Z,99642.94
2023-01-28T03:30:07.188Z,99623.28
2023-01-28T03:32:56.358Z,99628.03
2023-01-28T03:35:45.902Z,99641.47
2023-01-28T03:38:21.025Z,99633.41
2023-01-28T03:40:53.213Z,99636.09
2023-01-28T03:43:20.323Z,99636.09
2023-01-28T03:45:51.453Z,99637.72
2023-01-28T03:48:21.569Z,99633.56
2023-01-28T03:50:49.291Z,99635.47
2023-01-28T03:53:17.218Z,99643.53
2023-01-28T03:55:53.162Z,99636.47
2023-01-28T03:58:21.037Z,99648.91
2023-01-28T04:00:48.224Z,99648.06
2023-01-28T04:03:17.778Z,99661.50
2023-01-28T04:06:00.930Z,99656.34
2023-01-28T04:08:39.790Z,99659.88
2023-01-28T04:11:25.538Z,99663.59
2023-01-28T04:13:53.543Z,99665.25
2023-01-28T04:16:21.190Z,99671.66
2023-01-28T04:18:48.495Z,99669.78
2023-01-28T04:21:17.713Z,99667.94
2023-01-28T04:23:44.676Z,99672.66
2023-01-28T04:26:14.048Z,99669.16
2023-01-28T04:28:40.964Z,99666.47
2023-01-28T04:31:08.252Z,99674.56
2023-01-28T04:33:53.713Z,99677.44
2023-01-28T04:36:42.257Z,99677.44
2023-01-28T04:39:28.177Z,99684.66
2023-01-28T04:42:16.846Z,99676.78
2023-01-28T04:45:16.381Z,99682.41
2023-01-28T04:47:51.609Z,99678.69
2023-01-28T04:50:45.820Z,99681.56
2023-01-28T04:53:28.075Z,99688.59
2023-01-28T04:55:57.975Z,99687.78
2023-01-28T04:58:26.134Z,99697.50
2023-01-28T05:00:58.008Z,99690.25
2023-01-28T05:03:25.577Z,99684.88
2023-01-28T05:05:52.819Z,99686.56
2023-01-28T05:08:34.647Z,99689.44
2023-01-28T05:11:01.652Z,99689.44
2023-01-28T05:13:28.701Z,99699.38
2023-01-28T05:15:55.640Z,99697.50
2023-01-28T05:18:22.566Z,99695.63
2023-01-28T05:21:04.045Z,99700.19
2023-01-28T05:23:34.121Z,99699.38
2023-01-28T05:26:01.225Z,99700.41
2023-01-28T05:28:29.386Z,99706.63
2023-01-28T05:31:02.351Z,99706.63
2023-01-28T05:33:29.848Z,99714.69
2023-01-28T05:35:57.365Z,99715.91
2023-01-28T05:38:24.263Z,99712.41
2023-01-28T05:40:53.005Z,99715.09
2023-01-28T05:43:19.858Z,99720.47
2023-01-28T05:46:12.758Z,99724.19
2023-01-28T05:48:58.003Z,99723.34
2023-01-28T05:51:43.744Z,99723.75
2023-01-28T05:54:13.097Z,99729.78
2023-01-28T05:56:41.431Z,99735.34
2023-01-28T05:59:10.400Z,99731.63
2023-01-28T06:01:38.638Z,99726.25
2023-01-28T06:04:05.527Z,99737.84
2023-01-28T06:06:32.497Z,99732.47
2023-01-28T06:08:59.593Z,99734.31
2023-01-28T06:11:29.577Z,99734.31
2023-01-28T06:14:02.324Z,99729.97
2023-01-28T06:16:42.862Z,99743.81
2023-01-28T06:19:38.913Z,99735.13
2023-01-28T06:22:07.538Z,99735.13
2023-01-28T06:24:34.513Z,99735.13
2023-01-28T06:27:01.430Z,99744.00
2023-01-28T06:29:29.772Z,99741.31
2023-01-28T06:31:56.667Z,99741.31
2023-01-28T06:34:23.665Z,99735.13
2023-01-28T06:36:51.126Z,99738.63
2023-01-28T06:39:17.951Z,99743.00
2023-01-28T06:41:44.819Z,99740.72
2023-01-28T06:44:11.644Z,99742.78
2023-01-28T06:46:39.916Z,99743.22
2023-01-28T06:49:06.874Z,99743.63
2023-01-28T06:51:33.745Z,99756.53
2023-01-28T06:54:00.583Z,99761.50
2023-01-28T06:56:27.436Z,99768.75
2023-01-28T06:58:54.249Z,99768.97
2023-01-28T07:01:21.159Z,99769.19
2023-01-28T07:03:49.405Z,99771.91
2023-01-28T07:06:16.970Z,99770.88
2023-01-28T07:08:43.742Z,99771.50
2023-01-28T07:11:10.700Z,99769.44
2023-01-28T07:13:37.614Z,99769.22
2023-01-28T07:16:04.990Z,99771.53
2023-01-28T07:18:31.898Z,99778.59
2023-01-28T07:21:00.096Z,99781.91
2023-01-28T07:23:29.020Z,99788.94
2023-01-28T07:25:56.167Z,99791.22
2023-01-28T07:28:23.044Z,99780.44
2023-01-28T07:30:53.402Z,99779.41
2023-01-28T07:33:21.092Z,99783.72
2023-01-28T07:35:48.665Z,99788.28
2023-01-28T07:38:17.085Z,99795.53
2023-01-28T07:40:45.260Z,99787.63
2023-01-28T07:43:12.296Z,99792.22
2023-01-28T07:45:40.766Z,99788.06
2023-01-28T07:48:10.320Z,99782.84
2023-01-28T07:50:38.252Z,99791.34
2023-01-28T07:53:06.383Z,99795.06
2023-01-28T07:55:38.279Z,99795.47
2023-01-28T07:58:07.156Z,99795.88
2023-01-28T08:00:35.955Z,99796.25
2023-01-28T08:03:06.218Z,99794.56
2023-01-28T08:05:43.445Z,99796.84
2023-01-28T08:08:11.905Z,99805.53
2023-01-28T08:10:40.329Z,99806.19
2023-01-28T08:13:08.050Z,99807.81
2023-01-28T08:15:35.439Z,99810.09
2023-01-28T08:18:03.882Z,99809.91
2023-01-28T08:20:30.954Z,99814.03
2023-01-28T08:23:05.996Z,99815.69
2023-01-28T08:25:33.963Z,99822.50
2023-01-28T08:28:02.520Z,99826.06
2023-01-28T08:30:29.409Z,99821.50
2023-01-28T08:32:57.365Z,99821.50
2023-01-28T08:35:24.513Z,99826.66
2023-01-28T08:37:51.388Z,99831.03
2023-01-28T08:40:18.895Z,99826.66
2023-01-28T08:42:49.328Z,99828.31
2023-01-28T08:45:18.445Z,99825.63
2023-01-28T08:47:49.278Z,99829.97
2023-01-28T08:50:17.697Z,99827.06
2023-01-28T08:52:44.786Z,99828.94
2023-01-28T08:55:12.301Z,99827.28
2023-01-28T08:57:39.843Z,99827.28
2023-01-28T09:00:08.428Z,99821.03
2023-01-28T09:02:36.922Z,99828.31
2023-01-28T09:05:05.409Z,99831.03
2023-01-28T09:07:32.659Z,99833.28
2023-01-28T09:09:59.445Z,99834.31
2023-01-28T09:12:27.189Z,99830.81
2023-01-28T09:14:54.179Z,99833.72
2023-01-28T09:17:21.506Z,99835.38
2023-01-28T09:19:49.700Z,99838.91
2023-01-28T09:22:16.998Z,99838.91
2023-01-28T09:24:43.780Z,99852.16
2023-01-28T09:27:10.694Z,99842.41
2023-01-28T09:29:38.752Z,99849.47
2023-01-28T09:32:07.217Z,99857.56
2023-01-28T09:34:34.136Z,99853.22
2023-01-28T09:37:02.521Z,99857.56
2023-01-28T09:39:29.571Z,99855.91
2023-01-28T09:42:09.934Z,99861.31
2023-01-28T09:44:54.217Z,99861.31
2023-01-28T09:47:26.655Z,99859.88
2023-01-28T09:49:57.178Z,99866.09
2023-01-28T09:52:26.731Z,99865.06
2023-01-28T09:55:00.289Z,99864.84
2023-01-28T09:57:32.154Z,99865.44
2023-01-28T09:59:59.447Z,99865.44
2023-01-28T10:02:42.591Z,99861.09
2023-01-28T10:05:20.390Z,99860.50
2023-01-28T10:07:57.415Z,99858.81
2023-01-28T10:10:29.121Z,99863.41
2023-01-28T10:13:15.110Z,99861.31
2023-01-28T10:15:53.947Z,99855.69
2023-01-28T10:18:31.728Z,99851.75
2023-01-28T10:21:06.453Z,99853.41
2023-01-28T10:23:45.372Z,99846.16
2023-01-28T10:26:21.692Z,99855.91
2023-01-28T10:28:54.994Z,99862.34
2023-01-28T10:31:23.797Z,99855.91
2023-01-28T10:33:50.666Z,99861.31
2023-01-28T10:36:18.347Z,99857.78
2023-01-28T10:38:47.081Z,99855.91
2023-01-28T10:41:22.307Z,99861.31
2023-01-28T10:43:50.311Z,99868.59
2023-01-28T10:46:21.249Z,99858.59
2023-01-28T10:48:56.590Z,99859.84
2023-01-28T10:51:34.796Z,99864.22
2023-01-28T10:54:03.838Z,99859.03
2023-01-28T10:56:32.584Z,99864.44
2023-01-28T10:59:02.317Z,99864.63
2023-01-28T11:01:42.308Z,99861.94
2023-01-28T11:04:19.175Z,99870.03
2023-01-28T11:06:56.818Z,99864.00
2023-01-28T11:09:28.265Z,99865.91
2023-01-28T11:11:54.944Z,99867.75
2023-01-28T11:14:27.332Z,99874.00
2023-01-28T11:16:56.454Z,99871.88
2023-01-28T11:19:29.596Z,99870.03
2023-01-28T11:21:57.977Z,99860.88
2023-01-28T11:24:29.163Z,99865.22
2023-01-28T11:26:58.715Z,99863.59
2023-01-28T11:29:30.512Z,99863.59
2023-01-28T11:31:59.412Z,99873.53
2023-01-28T11:34:28.513Z,99870.84
2023-01-28T11:37:02.734Z,99875.44
2023-01-28T11:39:31.345Z,99880.81
2023-01-28T11:42:11.918Z,99869.41
2023-01-28T11:44:39.415Z,99867.75
2023-01-28T11:47:32.359Z,99858.81
2023-01-28T11:50:26.478Z,99866.31
2023-01-28T11:53:08.355Z,99862.97
2023-01-28T11:55:45.908Z,99865.47
2023-01-28T11:58:24.038Z,99864.66
2023-01-28T12:01:01.641Z,99867.56
2023-01-28T12:03:55.201Z,99864.25
2023-01-28T12:06:40.302Z,99860.72
2023-01-28T12:09:15.981Z,99854.72
2023-01-28T12:12:11.903Z,99857.63
2023-01-28T12:14:54.946Z,99852.22
2023-01-28T12:17:32.962Z,99850.34
2023-01-28T12:20:12.580Z,99856.81
2023-01-28T12:23:05.225Z,99850.56
2023-01-28T12:25:46.318Z,99853.25
2023-01-28T12:28:24.303Z,99848.09
2023-01-28T12:31:11.438Z,99860.72
2023-01-28T12:34:02.779Z,99861.78
2023-01-28T12:36:46.840Z,99856.38
2023-01-28T12:39:26.255Z,99854.72
2023-01-28T12:42:04.294Z,99852.25
2023-01-28T12:44:37.790Z,99852.25
2023-01-28T12:47:10.293Z,99843.94
2023-01-28T12:49:42.651Z,99845.59
2023-01-28T12:52:15.336Z,99849.34
2023-01-28T12:54:53.792Z,99850.38
2023-01-28T12:57:23.883Z,99853.69
2023-01-28T12:59:58.561Z,99857.00
2023-01-28T13:02:29.980Z,99852.44
2023-01-28T13:05:00.746Z,99854.31
2023-01-28T13:07:34.298Z,99852.03
2023-01-28T13:10:05.646Z,99852.25
2023-01-28T13:12:33.933Z,99847.91
2023-01-28T13:15:02.760Z,99852.25
2023-01-28T13:17:31.676Z,99852.25
2023-01-28T13:19:59.857Z,99859.50
2023-01-28T13:22:30.996Z,99851.41
2023-01-28T13:25:11.891Z,99852.44
2023-01-28T13:27:38.748Z,99861.38
2023-01-28T13:30:26.015Z,99858.91
2023-01-28T13:32:59.232Z,99853.72
2023-01-28T13:35:32.620Z,99857.47
2023-01-28T13:38:08.316Z,99858.25
2023-01-28T13:40:36.089Z,99859.31
2023-01-28T13:43:05.249Z,99868.25
2023-01-28T13:45:34.157Z,99871.16
2023-01-28T13:48:15.457Z,99870.31
2023-01-28T13:50:43.272Z,99877.59
2023-01-28T13:53:23.690Z,99877.59
2023-01-28T13:55:55.332Z,99890.44
2023-01-28T13:58:36.711Z,99885.25
2023-01-28T14:01:55.311Z,99887.34
2023-01-28T14:04:43.137Z,99903.13
2023-01-28T14:07:37.023Z,99907.69
2023-01-28T14:10:17.948Z,99902.50
2023-01-28T14:12:58.501Z,99905.19
2023-01-28T14:15:57.418Z,99909.53
2023-01-28T14:18:29.752Z,99900.00
2023-01-28T14:21:01.474Z,99907.28
2023-01-28T14:23:31.978Z,99900.22
2023-01-28T14:26:16.373Z,99913.09
2023-01-28T14:28:55.190Z,99909.34
2023-01-28T14:31:27.904Z,99919.53
2023-01-28T14:34:06.872Z,99915.16
2023-01-28T14:36:37.710Z,99930.09
2023-01-28T14:39:04.608Z,99931.13
2023-01-28T14:41:31.608Z,99930.31
2023-01-28T14:43:58.665Z,99935.72
2023-01-28T14:46:36.128Z,99938.41
2023-01-28T14:49:20.091Z,99935.72
2023-01-28T14:52:12.522Z,99938.41
2023-01-28T14:54:50.542Z,99939.84
2023-01-28T14:57:34.565Z,99931.56
2023-01-28T15:00:02.162Z,99938.59
2023-01-28T15:02:31.296Z,99942.34
2023-01-28T15:05:10.233Z,99942.34
2023-01-28T15:07:37.519Z,99946.69
2023-01-28T15:10:06.723Z,99945.03
2023-01-28T15:12:38.565Z,99939.66
2023-01-28T15:15:10.557Z,99946.06
2023-01-28T15:17:38.660Z,99950.44
2023-01-28T15:20:09.758Z,99954.78
2023-01-28T15:22:38.831Z,99952.09
2023-01-28T15:25:05.968Z,99950.19
2023-01-28T15:27:32.986Z,99949.41
2023-01-28T15:30:00.047Z,99957.47
2023-01-28T15:32:29.591Z,99954.78
2023-01-28T15:34:59.227Z,99965.56
2023-01-28T15:37:28.087Z,99969.91
2023-01-28T15:40:02.425Z,99958.53
2023-01-28T15:42:31.834Z,99961.44
2023-01-28T15:44:59.760Z,99964.13
2023-01-28T15:47:32.424Z,99969.53
2023-01-28T15:50:02.449Z,99965.16
2023-01-28T15:52:34.206Z,99964.13
2023-01-28T15:55:02.295Z,99973.03
2023-01-28T15:57:31.279Z,99966.81
2023-01-28T16:00:13.370Z,99971.38
2023-01-28T16:02:44.639Z,99968.06
2023-01-28T16:05:26.286Z,99974.47
2023-01-28T16:07:56.425Z,99962.69
2023-01-28T16:10:27.254Z,99966.38
2023-01-28T16:12:58.286Z,99977.19
2023-01-28T16:15:25.142Z,99969.09
2023-01-28T16:17:52.807Z,99967.44
2023-01-28T16:20:25.012Z,99975.53
2023-01-28T16:22:58.116Z,99973.88
2023-01-28T16:25:29.257Z,99974.69
2023-01-28T16:27:56.814Z,99980.06
2023-01-28T16:30:23.729Z,99989.22
2023-01-28T16:32:50.866Z,99992.94
2023-01-28T16:35:20.075Z,99994.81
2023-01-28T16:37:48.165Z,99986.72
2023-01-28T16:40:19.354Z,99992.09
2023-01-28T16:42:48.663Z,99989.41
2023-01-28T16:45:18.119Z,99984.22
2023-01-28T16:47:45.304Z,99995.84
2023-01-28T16:50:13.414Z,99996.91
2023-01-28T16:52:42.145Z,99991.50
2023-01-28T16:55:12.675Z,99996.91
2023-01-28T16:57:41.563Z,99988.81
2023-01-28T17:00:16.633Z,99999.59
2023-01-28T17:02:43.601Z,100007.69
2023-01-28T17:05:15.150Z,100002.28
2023-01-28T17:07:42.817Z,100011.19
2023-01-28T17:10:11.376Z,100013.06
2023-01-28T17:12:38.221Z,100012.22
2023-01-28T17:15:07.900Z,100016.59
2023-01-28T17:17:34.972Z,100012.03
2023-01-28T17:20:01.819Z,100016.38
2023-01-28T17:22:28.722Z,100020.97
2023-01-28T17:24:55.613Z,100023.44
2023-01-28T17:27:22.569Z,100026.97
2023-01-28T17:29:49.521Z,100031.09
2023-01-28T17:32:17.710Z,100030.91
2023-01-28T17:34:44.720Z,100034.84
2023-01-28T17:37:11.704Z,100028.41
2023-01-28T17:39:38.545Z,100027.81
2023-01-28T17:42:05.457Z,100029.44
2023-01-28T17:44:32.559Z,100032.59
2023-01-28T17:46:59.440Z,100029.44
2023-01-28T17:49:27.681Z,100032.56
2023-01-28T17:51:54.994Z,100039.00
2023-01-28T17:54:23.957Z,100036.31
2023-01-28T17:56:50.851Z,100037.97
2023-01-28T17:59:17.840Z,100046.88
2023-01-28T18:01:45.211Z,100045.22
2023-01-28T18:04:13.204Z,100045.22
2023-01-28T18:06:41.442Z,100047.09
2023-01-28T18:09:09.391Z,100042.53
2023-01-28T18:11:36.287Z,100047.09
2023-01-28T18:14:03.220Z,100047.31
2023-01-28T18:16:30.103Z,100050.22
2023-01-28T18:18:57.115Z,100050.00
2023-01-28T18:21:46.349Z,100049.56
2023-01-28T18:24:20.003Z,100053.94
2023-01-28T18:26:46.901Z,100054.75
2023-01-28T18:29:16.970Z,100062.03
2023-01-28T18:31:44.164Z,100053.94
2023-01-28T18:34:11.220Z,100053.94
2023-01-28T18:36:38.379Z,100063.06
2023-01-28T18:39:05.478Z,100059.75
2023-01-28T18:41:33.773Z,100063.28
2023-01-28T18:44:00.541Z,100065.16
2023-01-28T18:46:27.411Z,100063.50
2023-01-28T18:48:56.149Z,100061.00
2023-01-28T18:51:30.930Z,100069.09
2023-01-28T18:53:59.147Z,100063.91
2023-01-28T18:56:26.672Z,100060.38
2023-01-28T18:58:56.801Z,100060.38
2023-01-28T19:01:23.892Z,100075.75
2023-01-28T19:03:50.886Z,100077.59
2023-01-28T19:06:17.919Z,100072.41
2023-01-28T19:08:44.902Z,100075.09
2023-01-28T19:11:11.807Z,100075.09
2023-01-28T19:13:38.658Z,100084.03
2023-01-28T19:16:07.430Z,100080.69
2023-01-28T19:18:34.499Z,100081.75
2023-01-28T19:21:02.432Z,100074.50
2023-01-28T19:23:33.095Z,100083.63
2023-01-28T19:26:07.898Z,100077.38
2023-01-28T19:28:35.565Z,100074.91
2023-01-28T19:31:03.215Z,100076.56
2023-01-28T19:33:31.618Z,100076.75
2023-01-28T19:35:59.701Z,100082.16
2023-01-28T19:38:27.297Z,100093.78
2023-01-28T19:40:54.311Z,100087.53
2023-01-28T19:43:22.348Z,100084.03
2023-01-28T19:45:55.789Z,100093.97
2023-01-28T19:48:22.878Z,100090.47
2023-01-28T19:50:51.153Z,100094.19
2023-01-28T19:53:19.444Z,100089.84
2023-01-28T19:55:46.463Z,100103.31
2023-01-28T19:58:13.495Z,100101.66
2023-01-28T20:00:40.506Z,100103.31
2023-01-28T20:03:08.437Z,100097.91
2023-01-28T20:05:35.887Z,100105.16
2023-01-28T20:08:04.733Z,100104.34
2023-01-28T20:10:31.783Z,100101.66
2023-01-28T20:12:58.660Z,100104.34
2023-01-28T20:15:25.541Z,100104.34
2023-01-28T20:17:52.528Z,100110.78
2023-01-28T20:20:19.375Z,100109.13
2023-01-28T20:22:46.219Z,100118.25
2023-01-28T20:25:15.157Z,100123.63
2023-01-28T20:27:42.172Z,100116.59
2023-01-28T20:30:10.417Z,100115.75
2023-01-28T20:32:37.325Z,100120.94
2023-01-28T20:35:04.402Z,100128.00
2023-01-28T20:37:31.266Z,100125.50
2023-01-28T20:39:58.141Z,100115.56
2023-01-28T20:42:26.334Z,100116.59
2023-01-28T20:44:53.196Z,100124.03
2023-01-28T20:47:20.044Z,100130.69
2023-01-28T20:49:46.883Z,100132.75
2023-01-28T20:52:13.835Z,100134.00
2023-01-28T20:54:40.669Z,100136.47
2023-01-28T20:57:07.734Z,100136.88
2023-01-28T20:59:36.518Z,100138.94
2023-01-28T21:02:03.483Z,100138.53
2023-01-28T21:04:30.328Z,100134.34
2023-01-28T21:06:57.164Z,100126.47
2023-01-28T21:09:25.613Z,100129.34
2023-01-28T21:11:52.469Z,100128.09
2023-01-28T21:14:19.319Z,100131.19
2023-01-28T21:16:47.627Z,100134.28
2023-01-28T21:19:14.499Z,100136.38
2023-01-28T21:21:42.946Z,100139.25
2023-01-28T21:24:11.533Z,100144.22
2023-01-28T21:26:38.489Z,100157.06
2023-01-28T21:29:05.811Z,100155.41
2023-01-28T21:31:32.882Z,100153.75
2023-01-28T21:34:03.837Z,100156.00
2023-01-28T21:36:33.813Z,100156.19
2023-01-28T21:39:01.413Z,100154.53
2023-01-28T21:41:28.268Z,100158.25
2023-01-28T21:43:57.295Z,100165.69
2023-01-28T21:46:25.862Z,100158.66
2023-01-28T21:48:54.744Z,100150.97
2023-01-28T21:51:41.664Z,100162.16
2023-01-28T21:54:12.369Z,100168.97
2023-01-28T21:56:39.646Z,100166.88
2023-01-28T21:59:25.063Z,100165.41
2023-01-28T22:01:52.286Z,100155.22
2023-01-28T22:04:19.188Z,100163.50
2023-01-28T22:06:47.441Z,100167.22
2023-01-28T22:09:14.554Z,100161.84
2023-01-28T22:11:43.112Z,100160.19
2023-01-28T22:14:10.515Z,100161.41
2023-01-28T22:16:37.731Z,100160.59
2023-01-28T22:19:05.385Z,100153.94
2023-01-28T22:21:32.329Z,100156.63
2023-01-28T22:24:00.573Z,100150.78
2023-01-28T22:26:27.459Z,100154.69
2023-01-28T22:28:54.276Z,100158.63
2023-01-28T22:31:21.248Z,100157.78
2023-01-28T22:33:48.120Z,100161.50
2023-01-28T22:36:16.110Z,100169.59
2023-01-28T22:38:44.672Z,100163.34
2023-01-28T22:41:15.044Z,100160.03
2023-01-28T22:43:42.249Z,100162.94
2023-01-28T22:46:10.066Z,100154.41
2023-01-28T22:48:38.195Z,100152.94
2023-01-28T22:51:06.858Z,100152.94
2023-01-28T22:53:34.308Z,100151.28
2023-01-28T22:56:02.615Z,100148.78
2023-01-28T22:58:31.876Z,100144.44
2023-01-28T23:00:58.973Z,100145.25
2023-01-28T23:03:26.280Z,100141.75
2023-01-28T23:05:57.072Z,100141.94
2023-01-28T23:08:23.911Z,100141.09
2023-01-28T23:10:51.056Z,100130.56
2023-01-28T23:13:19.264Z,100132.41
2023-01-28T23:16:07.049Z,100121.81
2023-01-28T23:18:52.789Z,100122.00
2023-01-28T23:21:40.620Z,100125.94
2023-01-28T23:24:24.358Z,100132.53
2023-01-28T23:26:53.650Z,100123.81
2023-01-28T23:29:23.845Z,100131.91
2023-01-28T23:31:54.300Z,100133.78
2023-01-28T23:34:22.555Z,100132.13
2023-01-28T23:36:50.587Z,100117.63
2023-01-28T23:39:17.480Z,100127.56
2023-01-28T23:41:44.310Z,100140.19
2023-01-28T23:44:11.137Z,100131.47
2023-01-28T23:46:40.147Z,100128.78
2023-01-28T23:49:09.781Z,100137.03
2023-01-28T23:51:36.656Z,100128.16
2023-01-28T23:54:03.524Z,100125.47
2023-01-28T23:56:30.327Z,100126.47
2023-01-28T23:58:57.161Z,100122.13
